Time;durP1;ratioP1;P1;durP2;ratioP2;P2;SDS_P1;SDS_P2;PMS_P1;PMS_P2;Temp;Humidity;BMP_temperature;BMP_pressure;BME280_temperature;BME280_humidity;BME280_pressure;Samples;Min_cycle;Max_cycle;Signal;HPM_P1;HPM_P2
2022/04/17 00:01:31;;;;;;;6.18;3.28;;;;;;;;;;5100443;28;20047;-71
2022/04/17 00:03:57;;;;;;;7.38;3.65;;;;;;;;;;5099128;28;20095;-70
2022/04/17 00:06:23;;;;;;;6.32;3.38;;;;;;;;;;5100929;28;20043;-71
2022/04/17 00:08:49;;;;;;;5.18;2.67;;;;;;;;;;5100216;28;20058;-70
2022/04/17 00:11:15;;;;;;;6.28;3.28;;;;;;;;;;5083442;28;20039;-69
2022/04/17 00:13:44;;;;;;;5.95;3.08;;;;;;;;;;5100428;28;20106;-70
2022/04/17 00:16:10;;;;;;;6.55;3.15;;;;;;;;;;5119219;28;20047;-71
2022/04/17 00:18:36;;;;;;;5.75;2.97;;;;;;;;;;5083421;28;20434;-70
2022/04/17 00:21:03;;;;;;;5.70;2.90;;;;;;;;;;5100363;28;20201;-70
2022/04/17 00:23:29;;;;;;;7.10;3.60;;;;;;;;;;5118880;28;20170;-70
2022/04/17 00:25:55;;;;;;;6.03;3.20;;;;;;;;;;5100233;28;20042;-70
2022/04/17 00:28:22;;;;;;;6.63;3.22;;;;;;;;;;5100576;28;20059;-71
2022/04/17 00:30:48;;;;;;;6.40;3.40;;;;;;;;;;5100151;28;20464;-70
2022/04/17 00:33:14;;;;;;;6.32;2.92;;;;;;;;;;5102422;27;20059;-72
2022/04/17 00:35:43;;;;;;;5.55;3.00;;;;;;;;;;5103603;27;20047;-70
2022/04/17 00:38:09;;;;;;;6.57;3.70;;;;;;;;;;5087269;27;20248;-70
2022/04/17 00:40:35;;;;;;;5.60;3.35;;;;;;;;;;5104138;27;20043;-70
2022/04/17 00:43:01;;;;;;;6.22;3.00;;;;;;;;;;5103780;27;20035;-70
2022/04/17 00:45:27;;;;;;;5.88;3.10;;;;;;;;;;5103891;27;20384;-70
2022/04/17 00:47:53;;;;;;;6.43;3.53;;;;;;;;;;5103813;27;20460;-70
2022/04/17 00:50:19;;;;;;;6.10;3.10;;;;;;;;;;5104541;27;20061;-69
2022/04/17 00:52:46;;;;;;;5.95;3.25;;;;;;;;;;5104202;27;20089;-70
2022/04/17 00:55:12;;;;;;;6.35;3.22;;;;;;;;;;5103835;27;20051;-72
2022/04/17 00:57:40;;;;;;;5.95;2.88;;;;;;;;;;5103678;27;20306;-71
2022/04/17 01:00:07;;;;;;;6.60;3.15;;;;;;;;;;5086834;27;20093;-71
2022/04/17 01:02:33;;;;;;;5.43;2.88;;;;;;;;;;5103633;27;20427;-72
2022/04/17 01:04:59;;;;;;;5.88;3.30;;;;;;;;;;5103643;27;20043;-71
2022/04/17 01:07:26;;;;;;;5.72;3.00;;;;;;;;;;5086636;27;20073;-71
2022/04/17 01:09:52;;;;;;;5.97;2.72;;;;;;;;;;5103605;27;20162;-70
2022/04/17 01:12:18;;;;;;;5.43;2.63;;;;;;;;;;5086497;27;20271;-71
2022/04/17 01:14:44;;;;;;;5.70;3.05;;;;;;;;;;5103608;27;20088;-70
2022/04/17 01:17:12;;;;;;;5.63;2.90;;;;;;;;;;5121930;27;20035;-70
2022/04/17 01:19:39;;;;;;;6.20;3.25;;;;;;;;;;5122078;27;20043;-72
2022/04/17 01:22:12;;;;;;;5.80;2.92;;;;;;;;;;5103576;27;20043;-72
2022/04/17 01:27:24;;;;;;;5.68;3.08;;;;;;;;;;5102904;27;20051;-71
2022/04/17 01:29:51;;;;;;;5.88;3.00;;;;;;;;;;5102990;27;20058;-72
2022/04/17 01:32:17;;;;;;;5.85;2.92;;;;;;;;;;5102837;27;20071;-70
2022/04/17 01:34:43;;;;;;;6.05;2.90;;;;;;;;;;5102893;27;20122;-71
2022/04/17 01:37:10;;;;;;;5.75;3.10;;;;;;;;;;5102513;27;20396;-71
2022/04/17 01:39:36;;;;;;;5.50;2.88;;;;;;;;;;5086327;27;20088;-70
2022/04/17 01:42:02;;;;;;;5.75;3.10;;;;;;;;;;5102836;27;20066;-71
2022/04/17 01:44:29;;;;;;;5.38;2.70;;;;;;;;;;5084919;27;20508;-71
2022/04/17 01:46:55;;;;;;;5.32;2.70;;;;;;;;;;5102932;27;20047;-71
2022/04/17 01:49:23;;;;;;;7.18;3.33;;;;;;;;;;5101951;27;20223;-71
2022/04/17 01:51:51;;;;;;;6.55;3.35;;;;;;;;;;5121279;27;20262;-71
2022/04/17 01:54:22;;;;;;;6.07;3.20;;;;;;;;;;5121435;27;20050;-71
2022/04/17 01:56:48;;;;;;;7.35;3.15;;;;;;;;;;5102886;27;20538;-71
2022/04/17 01:59:14;;;;;;;5.30;2.67;;;;;;;;;;5103025;27;20175;-71
2022/04/17 02:01:41;;;;;;;5.47;3.03;;;;;;;;;;5103013;27;20035;-70
2022/04/17 02:04:07;;;;;;;6.25;3.05;;;;;;;;;;5085636;27;20520;-70
2022/04/17 02:06:34;;;;;;;6.18;3.10;;;;;;;;;;5102614;27;20039;-71
2022/04/17 02:09:00;;;;;;;6.05;2.90;;;;;;;;;;5085929;27;20054;-71
2022/04/17 02:11:27;;;;;;;6.75;3.22;;;;;;;;;;5085486;27;20051;-70
2022/04/17 02:13:53;;;;;;;5.45;2.75;;;;;;;;;;5102688;27;20157;-71
2022/04/17 02:16:19;;;;;;;6.53;3.15;;;;;;;;;;5092472;28;20035;-71
2022/04/17 02:18:46;;;;;;;5.72;2.95;;;;;;;;;;5081527;28;20234;-70
2022/04/17 02:21:15;;;;;;;5.97;2.92;;;;;;;;;;5100813;28;20059;-71
2022/04/17 02:23:41;;;;;;;5.93;3.20;;;;;;;;;;5065439;28;20138;-70
2022/04/17 02:26:08;;;;;;;5.70;2.90;;;;;;;;;;5081776;28;20052;-71
2022/04/17 02:28:35;;;;;;;6.47;3.03;;;;;;;;;;5082209;28;20134;-72
2022/04/17 02:31:05;;;;;;;6.80;3.40;;;;;;;;;;5081137;28;20490;-71
2022/04/17 02:33:31;;;;;;;5.45;2.58;;;;;;;;;;5081832;28;20047;-71
2022/04/17 02:35:57;;;;;;;6.10;3.05;;;;;;;;;;5081296;28;20044;-70
2022/04/17 02:38:24;;;;;;;6.68;3.17;;;;;;;;;;5081732;28;20395;-71
2022/04/17 02:40:50;;;;;;;5.85;3.33;;;;;;;;;;5064389;28;20036;-71
2022/04/17 02:43:16;;;;;;;6.40;2.88;;;;;;;;;;5081665;28;20073;-71
2022/04/17 02:45:42;;;;;;;6.72;3.10;;;;;;;;;;5081275;28;20123;-70
2022/04/17 02:48:08;;;;;;;6.93;3.03;;;;;;;;;;5064529;28;20522;-71
2022/04/17 02:50:34;;;;;;;6.75;3.33;;;;;;;;;;5104665;27;20039;-71
2022/04/17 02:53:00;;;;;;;6.32;3.30;;;;;;;;;;5089948;27;20186;-72
2022/04/17 02:55:26;;;;;;;6.70;3.15;;;;;;;;;;5062563;28;20084;-71
2022/04/17 02:57:52;;;;;;;5.50;2.95;;;;;;;;;;5081136;28;20043;-71
2022/04/17 03:00:18;;;;;;;5.80;3.00;;;;;;;;;;5081420;28;20038;-71
2022/04/17 03:05:36;;;;;;;6.05;2.70;;;;;;;;;;5081799;28;20126;-71
2022/04/17 03:08:07;;;;;;;5.90;3.20;;;;;;;;;;5080940;28;20112;-71
2022/04/17 03:10:33;;;;;;;5.38;3.05;;;;;;;;;;5081344;28;20039;-71
2022/04/17 03:12:59;;;;;;;6.05;3.00;;;;;;;;;;5064002;28;20096;-71
2022/04/17 03:15:25;;;;;;;6.28;3.20;;;;;;;;;;5081210;28;20126;-71
2022/04/17 03:17:51;;;;;;;5.35;2.60;;;;;;;;;;5081279;27;20043;-70
2022/04/17 03:20:18;;;;;;;5.22;2.70;;;;;;;;;;5101155;27;20042;-72
2022/04/17 03:22:44;;;;;;;6.57;3.40;;;;;;;;;;5101370;27;20125;-70
2022/04/17 03:25:11;;;;;;;5.28;2.95;;;;;;;;;;5101298;27;20035;-69
2022/04/17 03:27:37;;;;;;;5.68;2.90;;;;;;;;;;5097657;28;20079;-70
2022/04/17 03:30:04;;;;;;;6.20;3.08;;;;;;;;;;5099114;28;20051;-70
2022/04/17 03:32:31;;;;;;;8.60;3.30;;;;;;;;;;5097522;28;20035;-70
2022/04/17 03:34:58;;;;;;;5.65;3.05;;;;;;;;;;5097155;28;20081;-70
2022/04/17 03:37:23;;;;;;;7.13;3.08;;;;;;;;;;5080552;28;20035;-71
2022/04/17 03:39:49;;;;;;;5.80;2.97;;;;;;;;;;5096741;28;20048;-71
2022/04/17 03:42:16;;;;;;;6.25;3.25;;;;;;;;;;5097419;28;20070;-70
2022/04/17 03:44:42;;;;;;;6.38;3.25;;;;;;;;;;5098654;28;20038;-71
2022/04/17 03:47:08;;;;;;;6.60;3.72;;;;;;;;;;5080209;28;20309;-70
2022/04/17 03:49:34;;;;;;;6.38;3.22;;;;;;;;;;5096555;28;20295;-71
2022/04/17 03:52:00;;;;;;;6.05;3.10;;;;;;;;;;5080478;28;20047;-72
2022/04/17 03:54:27;;;;;;;6.07;3.03;;;;;;;;;;5098964;28;20039;-72
2022/04/17 03:56:53;;;;;;;5.43;2.85;;;;;;;;;;5096975;28;20066;-72
2022/04/17 03:59:19;;;;;;;6.85;3.40;;;;;;;;;;5096995;28;20172;-72
2022/04/17 04:01:48;;;;;;;7.40;3.30;;;;;;;;;;5097486;28;20127;-72
2022/04/17 04:04:15;;;;;;;5.97;3.20;;;;;;;;;;5096278;28;20067;-71
2022/04/17 04:06:41;;;;;;;5.90;3.15;;;;;;;;;;5097332;28;20215;-72
2022/04/17 04:09:07;;;;;;;6.00;2.95;;;;;;;;;;5100568;28;20192;-72
2022/04/17 04:11:33;;;;;;;6.40;3.30;;;;;;;;;;5101579;28;20134;-72
2022/04/17 04:13:59;;;;;;;5.93;3.33;;;;;;;;;;5101380;28;20051;-72
2022/04/17 04:16:25;;;;;;;6.32;3.00;;;;;;;;;;5101660;28;20199;-71
2022/04/17 04:18:51;;;;;;;6.25;3.28;;;;;;;;;;5084683;28;20540;-71
2022/04/17 04:21:17;;;;;;;6.13;3.10;;;;;;;;;;5084491;28;20441;-72
2022/04/17 04:23:43;;;;;;;6.43;3.38;;;;;;;;;;5101132;28;20047;-72
2022/04/17 04:26:09;;;;;;;5.55;3.00;;;;;;;;;;5104818;27;20133;-71
2022/04/17 04:28:38;;;;;;;6.28;3.17;;;;;;;;;;5104517;27;20112;-71
2022/04/17 04:31:05;;;;;;;6.85;3.58;;;;;;;;;;5104484;27;20062;-71
2022/04/17 04:33:31;;;;;;;6.10;3.10;;;;;;;;;;5104398;27;20232;-72
2022/04/17 04:36:00;;;;;;;6.32;3.10;;;;;;;;;;5104648;27;20516;-69
2022/04/17 04:38:26;;;;;;;6.85;3.40;;;;;;;;;;5104382;27;20122;-70
2022/04/17 04:40:52;;;;;;;6.30;3.33;;;;;;;;;;5087386;27;20099;-70
2022/04/17 04:43:18;;;;;;;6.70;3.55;;;;;;;;;;5087330;27;20058;-71
2022/04/17 04:51:14;;;;;;;;;;;;;;;;;;5123329;27;20493;-69
2022/04/17 04:53:40;;;;;;;5.80;3.15;;;;;;;;;;5104089;27;20027;-71
2022/04/17 04:56:06;;;;;;;5.90;3.45;;;;;;;;;;5103972;27;20054;-71
2022/04/17 04:58:33;;;;;;;7.78;3.25;;;;;;;;;;5104272;27;20393;-71
2022/04/17 05:00:59;;;;;;;9.02;3.80;;;;;;;;;;5104400;27;20232;-70
2022/04/17 05:03:25;;;;;;;6.13;3.25;;;;;;;;;;5121995;27;20043;-71
2022/04/17 05:05:51;;;;;;;6.15;3.47;;;;;;;;;;5104041;27;20710;-70
2022/04/17 05:08:19;;;;;;;6.43;3.35;;;;;;;;;;5103888;27;20039;-71
2022/04/17 05:10:45;;;;;;;8.18;4.60;;;;;;;;;;5086362;27;20035;-71
2022/04/17 05:13:11;;;;;;;6.90;3.75;;;;;;;;;;5104020;27;20042;-71
2022/04/17 05:15:37;;;;;;;6.60;3.38;;;;;;;;;;5070339;28;20475;-71
2022/04/17 05:18:03;;;;;;;6.63;3.50;;;;;;;;;;5082888;28;20035;-70
2022/04/17 05:20:33;;;;;;;6.10;3.25;;;;;;;;;;5081868;28;20052;-71
2022/04/17 05:23:04;;;;;;;6.25;3.60;;;;;;;;;;5082474;28;20043;-71
2022/04/17 05:25:30;;;;;;;6.60;3.22;;;;;;;;;;5101475;28;20110;-70
2022/04/17 05:27:56;;;;;;;6.93;3.72;;;;;;;;;;5082606;28;20060;-70
2022/04/17 05:30:22;;;;;;;6.80;3.63;;;;;;;;;;5082818;28;20514;-70
2022/04/17 05:32:48;;;;;;;5.90;3.33;;;;;;;;;;5083734;27;20051;-71
2022/04/17 05:35:15;;;;;;;6.63;3.50;;;;;;;;;;5103635;27;20047;-71
2022/04/17 05:37:41;;;;;;;6.97;3.78;;;;;;;;;;5102963;27;20059;-70
2022/04/17 05:40:09;;;;;;;8.25;3.75;;;;;;;;;;5102724;27;20225;-71
2022/04/17 05:42:35;;;;;;;7.45;3.85;;;;;;;;;;5103032;27;20043;-70
2022/04/17 05:45:02;;;;;;;6.95;4.07;;;;;;;;;;5102516;27;20474;-70
2022/04/17 05:47:29;;;;;;;8.18;4.15;;;;;;;;;;5102506;27;20329;-70
2022/04/17 05:49:55;;;;;;;7.25;3.60;;;;;;;;;;5102840;27;20506;-71
2022/04/17 05:52:21;;;;;;;7.20;4.18;;;;;;;;;;5085681;27;20035;-70
2022/04/17 05:54:47;;;;;;;7.53;3.85;;;;;;;;;;5085606;27;20328;-70
2022/04/17 05:57:13;;;;;;;8.63;3.90;;;;;;;;;;5102571;27;20066;-71
2022/04/17 05:59:39;;;;;;;7.22;3.88;;;;;;;;;;5102642;27;20119;-71
2022/04/17 06:02:11;;;;;;;7.07;3.95;;;;;;;;;;5082031;27;20142;-72
2022/04/17 06:04:37;;;;;;;7.18;4.20;;;;;;;;;;5080164;27;20075;-71
2022/04/17 06:07:03;;;;;;;7.43;4.38;;;;;;;;;;5100701;27;20316;-71
2022/04/17 06:09:29;;;;;;;7.72;4.43;;;;;;;;;;5102095;27;20039;-70
2022/04/17 06:11:55;;;;;;;8.38;4.22;;;;;;;;;;5085020;27;20047;-71
2022/04/17 06:14:21;;;;;;;8.25;4.13;;;;;;;;;;5121092;27;20046;-70
2022/04/17 06:16:47;;;;;;;7.38;4.35;;;;;;;;;;5100345;27;20059;-70
2022/04/17 06:19:14;;;;;;;8.25;4.95;;;;;;;;;;5101362;27;20039;-71
2022/04/17 06:21:40;;;;;;;8.10;4.47;;;;;;;;;;5101414;27;20077;-71
2022/04/17 06:24:06;;;;;;;8.85;5.10;;;;;;;;;;5101699;27;20082;-71
2022/04/17 06:26:33;;;;;;;9.52;4.55;;;;;;;;;;5081186;28;20279;-70
2022/04/17 06:29:05;;;;;;;8.15;4.85;;;;;;;;;;5098156;28;20036;-70
2022/04/17 06:31:31;;;;;;;8.27;4.93;;;;;;;;;;5097250;28;20060;-70
2022/04/17 06:33:57;;;;;;;9.32;5.00;;;;;;;;;;5097823;28;20204;-71
2022/04/17 06:36:24;;;;;;;9.05;5.10;;;;;;;;;;5097669;28;20047;-71
2022/04/17 06:38:50;;;;;;;9.15;4.72;;;;;;;;;;5096856;28;20092;-71
2022/04/17 06:41:16;;;;;;;9.00;5.10;;;;;;;;;;5088565;27;20115;-71
2022/04/17 06:43:42;;;;;;;8.75;5.07;;;;;;;;;;5097190;27;20541;-71
2022/04/17 06:46:08;;;;;;;8.90;4.72;;;;;;;;;;5097812;27;20650;-72
2022/04/17 06:48:34;;;;;;;9.98;5.18;;;;;;;;;;5097725;27;20044;-71
2022/04/17 06:51:00;;;;;;;10.15;5.35;;;;;;;;;;5097062;28;20250;-71
2022/04/17 06:53:26;;;;;;;8.52;4.40;;;;;;;;;;5092171;27;20322;-72
2022/04/17 06:55:52;;;;;;;9.50;4.60;;;;;;;;;;5097966;27;20110;-72
2022/04/17 06:58:21;;;;;;;8.43;5.03;;;;;;;;;;5094113;28;20405;-71
2022/04/17 07:00:48;;;;;;;9.38;4.80;;;;;;;;;;5076001;28;20345;-70
2022/04/17 07:03:15;;;;;;;8.80;4.57;;;;;;;;;;5080232;28;20134;-71
2022/04/17 07:05:41;;;;;;;10.65;5.57;;;;;;;;;;5096860;28;20031;-70
2022/04/17 07:08:07;;;;;;;8.38;5.00;;;;;;;;;;5096371;28;20047;-70
2022/04/17 07:10:37;;;;;;;8.75;4.80;;;;;;;;;;5080083;28;20067;-70
2022/04/17 07:13:03;;;;;;;8.95;4.90;;;;;;;;;;5079746;28;20286;-70
2022/04/17 07:15:29;;;;;;;8.82;5.20;;;;;;;;;;5079305;28;20046;-71
2022/04/17 07:17:56;;;;;;;7.97;4.63;;;;;;;;;;5097314;27;20055;-71
2022/04/17 07:20:22;;;;;;;7.75;4.60;;;;;;;;;;5097306;28;20241;-71
2022/04/17 07:22:49;;;;;;;9.32;5.20;;;;;;;;;;5096776;27;20089;-71
2022/04/17 07:25:15;;;;;;;7.60;4.68;;;;;;;;;;5096733;28;20454;-71
2022/04/17 07:27:45;;;;;;;8.80;4.85;;;;;;;;;;5079715;28;20056;-71
2022/04/17 07:30:11;;;;;;;10.48;5.40;;;;;;;;;;5097914;28;20051;-71
2022/04/17 07:32:38;;;;;;;8.93;5.25;;;;;;;;;;5097210;28;20130;-71
2022/04/17 07:35:04;;;;;;;9.30;5.20;;;;;;;;;;5096660;28;20358;-73
2022/04/17 07:37:32;;;;;;;9.23;5.28;;;;;;;;;;5096896;28;20516;-71
2022/04/17 07:39:58;;;;;;;9.82;5.22;;;;;;;;;;5096829;28;20058;-71
2022/04/17 07:42:24;;;;;;;9.38;5.05;;;;;;;;;;5096082;28;20044;-71
2022/04/17 07:44:50;;;;;;;7.68;4.60;;;;;;;;;;5079204;28;20082;-71
2022/04/17 07:47:16;;;;;;;8.80;4.57;;;;;;;;;;5097196;28;20051;-71
2022/04/17 07:49:43;;;;;;;8.45;4.97;;;;;;;;;;5079654;28;20043;-71
2022/04/17 07:52:09;;;;;;;9.20;5.05;;;;;;;;;;5097421;28;20180;-71
2022/04/17 07:54:35;;;;;;;7.65;4.57;;;;;;;;;;5096201;28;20094;-71
2022/04/17 07:57:01;;;;;;;10.32;5.93;;;;;;;;;;5098248;28;20311;-71
2022/04/17 07:59:27;;;;;;;8.32;4.70;;;;;;;;;;5079433;28;20046;-71
2022/04/17 08:02:01;;;;;;;8.82;4.80;;;;;;;;;;5082975;28;20119;-72
2022/04/17 08:04:28;;;;;;;8.30;4.75;;;;;;;;;;5049361;28;20048;-70
2022/04/17 08:06:54;;;;;;;8.40;4.60;;;;;;;;;;5057370;28;20078;-70
2022/04/17 08:09:20;;;;;;;8.30;4.65;;;;;;;;;;5044418;28;20056;-70
2022/04/17 08:11:51;;;;;;;8.70;5.07;;;;;;;;;;5051896;28;20098;-71
2022/04/17 08:14:18;;;;;;;8.80;4.60;;;;;;;;;;5062734;28;20067;-71
2022/04/17 08:16:44;;;;;;;8.88;4.75;;;;;;;;;;5064907;28;20074;-71
2022/04/17 08:19:10;;;;;;;8.07;4.40;;;;;;;;;;5056234;28;20273;-71
2022/04/17 08:21:36;;;;;;;8.93;4.47;;;;;;;;;;5061548;28;20040;-71
2022/04/17 08:24:02;;;;;;;9.35;4.70;;;;;;;;;;5072200;28;20036;-71
2022/04/17 08:26:29;;;;;;;7.82;4.45;;;;;;;;;;5081225;28;20575;-71
2022/04/17 08:28:55;;;;;;;8.38;4.50;;;;;;;;;;5093267;28;20047;-73
2022/04/17 08:31:20;;;;;;;8.00;4.65;;;;;;;;;;5076596;28;20127;-71
2022/04/17 08:33:47;;;;;;;7.93;4.63;;;;;;;;;;5095989;28;20130;-72
2022/04/17 08:36:13;;;;;;;8.77;5.15;;;;;;;;;;5097367;28;20055;-71
2022/04/17 08:38:42;;;;;;;10.55;5.07;;;;;;;;;;5097079;28;20342;-72
2022/04/17 08:41:09;;;;;;;8.25;4.32;;;;;;;;;;5097219;28;20536;-71
2022/04/17 08:43:35;;;;;;;8.52;4.75;;;;;;;;;;5097140;28;20498;-71
2022/04/17 08:46:01;;;;;;;8.02;4.35;;;;;;;;;;5098578;28;20043;-70
2022/04/17 08:48:28;;;;;;;8.07;4.75;;;;;;;;;;5096837;28;20457;-71
2022/04/17 08:50:54;;;;;;;8.00;4.47;;;;;;;;;;5096777;28;20494;-70
2022/04/17 08:53:22;;;;;;;8.02;4.22;;;;;;;;;;5097047;28;20504;-70
2022/04/17 08:55:48;;;;;;;9.13;4.80;;;;;;;;;;5071078;28;20058;-71
2022/04/17 08:58:14;;;;;;;8.43;4.65;;;;;;;;;;5100695;28;20567;-71
2022/04/17 09:00:40;;;;;;;8.45;4.05;;;;;;;;;;5079017;28;20376;-70
2022/04/17 09:03:10;;;;;;;11.00;4.75;;;;;;;;;;5100288;27;20062;-71
2022/04/17 09:05:40;;;;;;;8.50;4.65;;;;;;;;;;5080529;28;20386;-70
2022/04/17 09:08:13;;;;;;;10.00;4.43;;;;;;;;;;5081272;28;20646;-71
2022/04/17 09:10:39;;;;;;;10.97;5.63;;;;;;;;;;5073320;27;21021;-70
2022/04/17 09:13:05;;;;;;;10.98;4.85;;;;;;;;;;5093148;28;20040;-70
2022/04/17 09:15:31;;;;;;;10.27;4.97;;;;;;;;;;5098816;28;20138;-71
2022/04/17 09:17:57;;;;;;;10.57;4.93;;;;;;;;;;5102349;28;20043;-70
2022/04/17 09:20:24;;;;;;;10.60;5.18;;;;;;;;;;5102088;28;20635;-70
2022/04/17 09:22:55;;;;;;;12.05;5.40;;;;;;;;;;5102725;28;20066;-71
2022/04/17 09:25:28;;;;;;;8.52;4.55;;;;;;;;;;5085477;28;20047;-71
2022/04/17 09:28:01;;;;;;;7.97;4.68;;;;;;;;;;5100738;27;20094;-70
2022/04/17 09:30:34;;;;;;;10.15;5.47;;;;;;;;;;5091110;27;20061;-68
2022/04/17 09:33:05;;;;;;;9.77;5.70;;;;;;;;;;5079965;28;20547;-70
2022/04/17 09:35:31;;;;;;;9.52;5.18;;;;;;;;;;5112736;27;20051;-70
2022/04/17 09:38:02;;;;;;;8.05;4.75;;;;;;;;;;5101036;27;20051;-69
2022/04/17 09:40:29;;;;;;;9.60;5.57;;;;;;;;;;5074152;28;20040;-69
2022/04/17 09:43:15;;;;;;;8.82;4.95;;;;;;;;;;5092239;28;20400;-69
2022/04/17 09:46:00;;;;;;;10.35;5.20;;;;;;;;;;5099558;28;20050;-70
2022/04/17 09:48:29;;;;;;;10.25;5.40;;;;;;;;;;5079664;28;20059;-69
2022/04/17 09:50:55;;;;;;;9.90;5.18;;;;;;;;;;5079731;28;20135;-68
2022/04/17 09:53:37;;;;;;;9.55;4.90;;;;;;;;;;5081119;28;20555;-70
2022/04/17 09:56:04;;;;;;;11.73;5.25;;;;;;;;;;5078929;28;20509;-69
2022/04/17 09:58:30;;;;;;;9.65;4.85;;;;;;;;;;5079957;28;20634;-71
2022/04/17 10:00:58;;;;;;;9.82;4.82;;;;;;;;;;5079364;28;20052;-70
2022/04/17 10:03:24;;;;;;;10.00;4.55;;;;;;;;;;5090603;28;20419;-69
2022/04/17 10:05:50;;;;;;;10.00;4.53;;;;;;;;;;5097054;27;20179;-70
2022/04/17 10:08:16;;;;;;;10.82;4.70;;;;;;;;;;5103906;27;20062;-70
2022/04/17 10:10:43;;;;;;;9.43;4.50;;;;;;;;;;5099321;28;20196;-71
2022/04/17 10:13:09;;;;;;;12.68;4.85;;;;;;;;;;5116026;27;20122;-73
2022/04/17 10:15:35;;;;;;;13.75;4.85;;;;;;;;;;5120157;27;20619;-72
2022/04/17 10:18:03;;;;;;;8.98;4.07;;;;;;;;;;5100926;27;20508;-73
2022/04/17 10:20:30;;;;;;;10.65;4.20;;;;;;;;;;5081125;28;20564;-74
2022/04/17 10:23:01;;;;;;;9.00;4.90;;;;;;;;;;5081104;28;20560;-73
2022/04/17 10:25:27;;;;;;;9.40;3.95;;;;;;;;;;5113600;27;20085;-74
2022/04/17 10:27:55;;;;;;;11.48;3.92;;;;;;;;;;5119555;27;20059;-74
2022/04/17 10:30:22;;;;;;;8.88;3.80;;;;;;;;;;5119445;27;20134;-74
2022/04/17 10:33:13;;;;;;;8.55;4.40;;;;;;;;;;5102368;27;20107;-74
2022/04/17 10:35:42;;;;;;;9.85;3.97;;;;;;;;;;5109263;27;20087;-72
2022/04/17 10:38:31;;;;;;;10.43;4.35;;;;;;;;;;5098365;28;20039;-74
2022/04/17 10:40:59;;;;;;;7.40;3.55;;;;;;;;;;5085906;28;20127;-74
2022/04/17 10:43:25;;;;;;;8.25;4.05;;;;;;;;;;5098881;28;20039;-72
2022/04/17 10:46:06;;;;;;;16.65;5.53;;;;;;;;;;5098686;28;20039;-74
2022/04/17 10:48:32;;;;;;;10.88;4.05;;;;;;;;;;5077952;28;20482;-71
2022/04/17 10:50:58;;;;;;;8.25;4.05;;;;;;;;;;5094632;28;20046;-73
2022/04/17 10:53:28;;;;;;;11.63;3.90;;;;;;;;;;5098480;28;20043;-75
2022/04/17 10:56:10;;;;;;;8.73;4.10;;;;;;;;;;5081204;28;20043;-73
2022/04/17 10:58:41;;;;;;;7.40;3.80;;;;;;;;;;5098625;28;20062;-73
2022/04/17 11:01:09;;;;;;;13.15;4.10;;;;;;;;;;5098686;28;20513;-74
2022/04/17 11:03:36;;;;;;;9.25;3.80;;;;;;;;;;5082085;28;20270;-75
2022/04/17 11:06:20;;;;;;;9.85;3.70;;;;;;;;;;5099506;28;20086;-73
2022/04/17 11:08:56;;;;;;;9.43;4.05;;;;;;;;;;5086485;28;20313;-70
2022/04/17 11:11:22;;;;;;;9.23;3.92;;;;;;;;;;5072905;28;20070;-69
2022/04/17 11:14:08;;;;;;;11.07;3.42;;;;;;;;;;5079712;28;20227;-71
2022/04/17 11:16:42;;;;;;;7.38;3.33;;;;;;;;;;5093537;28;20154;-71
2022/04/17 11:19:12;;;;;;;5.38;2.78;;;;;;;;;;5096131;28;20050;-71
2022/04/17 11:21:41;;;;;;;11.60;3.50;;;;;;;;;;5082699;28;20043;-72
2022/04/17 11:24:07;;;;;;;7.85;3.22;;;;;;;;;;5097199;28;20043;-72
2022/04/17 11:26:52;;;;;;;6.90;3.17;;;;;;;;;;5102834;27;20055;-74
2022/04/17 11:29:33;;;;;;;10.50;3.25;;;;;;;;;;5082492;27;20100;-72
2022/04/17 11:31:59;;;;;;;10.07;3.40;;;;;;;;;;5079312;27;20541;-72
2022/04/17 11:34:25;;;;;;;13.10;4.13;;;;;;;;;;5079004;28;20074;-72
2022/04/17 11:36:51;;;;;;;9.57;3.35;;;;;;;;;;5081371;28;20047;-72
2022/04/17 11:39:27;;;;;;;14.35;3.75;;;;;;;;;;5098814;27;20115;-73
2022/04/17 11:41:53;;;;;;;9.55;3.30;;;;;;;;;;5100934;27;20047;-73
2022/04/17 11:44:19;;;;;;;10.02;3.60;;;;;;;;;;5101094;27;20100;-72
2022/04/17 11:46:45;;;;;;;7.93;3.40;;;;;;;;;;5119430;27;20138;-72
2022/04/17 11:49:11;;;;;;;15.98;3.65;;;;;;;;;;5101079;28;20131;-72
2022/04/17 11:51:43;;;;;;;10.38;3.20;;;;;;;;;;5084105;28;20539;-72
2022/04/17 11:54:29;;;;;;;9.23;3.20;;;;;;;;;;5100688;27;20047;-72
2022/04/17 11:56:55;;;;;;;12.27;3.40;;;;;;;;;;5119366;27;20286;-72
2022/04/17 11:59:23;;;;;;;12.15;2.63;;;;;;;;;;5100931;28;20503;-71
2022/04/17 12:02:06;;;;;;;11.25;3.28;;;;;;;;;;5100580;28;20560;-72
2022/04/17 12:04:33;;;;;;;9.18;2.85;;;;;;;;;;5100918;28;20052;-72
2022/04/17 12:06:59;;;;;;;6.97;2.60;;;;;;;;;;5083793;28;20031;-72
2022/04/17 12:09:25;;;;;;;16.73;3.20;;;;;;;;;;5100858;28;20039;-72
2022/04/17 12:11:51;;;;;;;10.52;3.17;;;;;;;;;;5101006;28;20525;-72
2022/04/17 12:14:30;;;;;;;8.60;2.83;;;;;;;;;;5100496;28;20046;-73
2022/04/17 12:16:56;;;;;;;6.78;2.45;;;;;;;;;;5100495;28;20767;-72
2022/04/17 12:19:22;;;;;;;7.40;2.88;;;;;;;;;;5083433;28;20211;-72
2022/04/17 12:21:49;;;;;;;6.22;2.13;;;;;;;;;;5099604;28;20089;-73
2022/04/17 12:24:15;;;;;;;6.95;2.90;;;;;;;;;;5100069;28;20043;-73
2022/04/17 12:26:41;;;;;;;7.10;2.45;;;;;;;;;;5100030;28;20077;-72
2022/04/17 12:29:08;;;;;;;7.05;2.33;;;;;;;;;;5101655;27;20612;-72
2022/04/17 12:31:37;;;;;;;7.40;2.60;;;;;;;;;;5104434;27;20047;-72
2022/04/17 12:34:10;;;;;;;5.97;2.40;;;;;;;;;;5103890;27;20126;-72
2022/04/17 12:36:42;;;;;;;6.88;2.38;;;;;;;;;;5104051;27;20103;-72
2022/04/17 12:39:08;;;;;;;5.50;2.40;;;;;;;;;;5104249;27;20118;-71
2022/04/17 12:41:40;;;;;;;6.90;2.40;;;;;;;;;;5104603;27;20301;-72
2022/04/17 12:44:07;;;;;;;6.55;2.20;;;;;;;;;;5103410;27;20066;-72
2022/04/17 12:46:35;;;;;;;5.35;2.20;;;;;;;;;;5102377;28;20057;-72
2022/04/17 12:49:02;;;;;;;5.75;2.20;;;;;;;;;;5082527;28;20048;-72
2022/04/17 12:51:28;;;;;;;7.10;2.25;;;;;;;;;;5083758;28;20262;-73
2022/04/17 12:53:54;;;;;;;5.60;2.30;;;;;;;;;;5083254;28;20496;-72
2022/04/17 12:56:25;;;;;;;5.85;2.50;;;;;;;;;;5083507;28;20338;-72
2022/04/17 12:58:52;;;;;;;6.13;2.28;;;;;;;;;;5083753;28;20035;-72
2022/04/17 13:01:28;;;;;;;6.60;2.30;;;;;;;;;;5083747;28;20096;-73
2022/04/17 13:04:19;;;;;;;5.43;1.98;;;;;;;;;;5083154;28;20176;-72
2022/04/17 13:06:46;;;;;;;5.35;2.00;;;;;;;;;;5066519;28;20047;-72
2022/04/17 13:09:13;;;;;;;4.90;1.85;;;;;;;;;;5066327;28;20043;-73
2022/04/17 13:11:43;;;;;;;5.57;1.90;;;;;;;;;;5083613;28;20048;-71
2022/04/17 13:14:09;;;;;;;3.95;1.58;;;;;;;;;;5082940;28;20078;-72
2022/04/17 13:16:47;;;;;;;5.70;2.33;;;;;;;;;;5101727;28;20040;-73
2022/04/17 13:19:13;;;;;;;5.85;2.10;;;;;;;;;;5083068;28;20297;-72
2022/04/17 13:21:39;;;;;;;5.47;2.45;;;;;;;;;;5083026;28;20042;-72
2022/04/17 13:24:05;;;;;;;6.60;2.38;;;;;;;;;;5082814;28;20190;-72
2022/04/17 13:26:31;;;;;;;5.72;1.98;;;;;;;;;;5082204;28;20055;-73
2022/04/17 13:28:57;;;;;;;5.10;1.95;;;;;;;;;;5065906;28;20122;-72
2022/04/17 13:31:23;;;;;;;4.90;1.90;;;;;;;;;;5082075;28;20417;-73
2022/04/17 13:33:49;;;;;;;4.70;1.77;;;;;;;;;;5082802;28;20043;-72
2022/04/17 13:36:15;;;;;;;4.78;1.75;;;;;;;;;;5082732;28;20384;-72
2022/04/17 13:38:41;;;;;;;6.32;2.15;;;;;;;;;;5082533;28;20181;-71
2022/04/17 13:41:07;;;;;;;5.53;1.98;;;;;;;;;;5105644;27;20039;-71
2022/04/17 13:43:33;;;;;;;5.10;2.05;;;;;;;;;;5121428;27;20046;-73
2022/04/17 13:45:59;;;;;;;5.50;1.83;;;;;;;;;;5103136;27;20050;-72
2022/04/17 13:48:25;;;;;;;5.90;2.10;;;;;;;;;;5095276;28;20254;-72
2022/04/17 13:50:51;;;;;;;5.45;2.40;;;;;;;;;;5073970;27;20073;-72
2022/04/17 13:53:17;;;;;;;5.45;2.10;;;;;;;;;;5102589;27;20126;-72
2022/04/17 13:55:44;;;;;;;6.47;2.50;;;;;;;;;;5102652;27;20199;-72
2022/04/17 13:58:10;;;;;;;7.18;2.60;;;;;;;;;;5102626;27;20517;-73
2022/04/17 14:00:36;;;;;;;6.40;2.03;;;;;;;;;;5102492;27;20126;-72
2022/04/17 14:03:02;;;;;;;4.80;2.05;;;;;;;;;;5102610;27;20620;-73
2022/04/17 14:05:28;;;;;;;3.67;1.60;;;;;;;;;;5101387;27;20219;-72
2022/04/17 14:07:55;;;;;;;5.70;2.13;;;;;;;;;;5102273;27;20498;-73
2022/04/17 14:10:22;;;;;;;4.68;2.17;;;;;;;;;;5102289;27;20035;-73
2022/04/17 14:12:48;;;;;;;5.13;2.25;;;;;;;;;;5102903;27;20079;-72
2022/04/17 14:15:14;;;;;;;5.88;2.40;;;;;;;;;;5102335;27;20039;-72
2022/04/17 14:17:40;;;;;;;6.38;2.05;;;;;;;;;;5085537;27;20435;-73
2022/04/17 14:20:06;;;;;;;5.93;2.13;;;;;;;;;;5102051;27;20043;-72
2022/04/17 14:22:34;;;;;;;4.72;2.03;;;;;;;;;;5102453;27;20039;-72
2022/04/17 14:25:00;;;;;;;4.75;2.15;;;;;;;;;;5120437;27;20493;-72
2022/04/17 14:27:26;;;;;;;4.82;1.83;;;;;;;;;;5120635;27;20059;-72
2022/04/17 14:29:53;;;;;;;5.80;1.90;;;;;;;;;;5102231;27;20047;-72
2022/04/17 14:32:20;;;;;;;5.40;2.10;;;;;;;;;;5101782;27;20047;-72
2022/04/17 14:34:46;;;;;;;5.10;1.80;;;;;;;;;;5101580;27;20340;-72
2022/04/17 14:37:12;;;;;;;4.65;2.38;;;;;;;;;;5101754;27;20554;-73
2022/04/17 14:39:38;;;;;;;5.70;2.10;;;;;;;;;;5084703;27;20327;-72
2022/04/17 14:42:05;;;;;;;5.45;1.77;;;;;;;;;;5101747;27;20046;-72
2022/04/17 14:44:31;;;;;;;4.45;1.80;;;;;;;;;;5084616;27;20039;-72
2022/04/17 14:46:57;;;;;;;4.75;1.75;;;;;;;;;;5101750;27;20126;-73
2022/04/17 14:49:23;;;;;;;3.97;1.52;;;;;;;;;;5101640;27;20408;-73
2022/04/17 14:51:50;;;;;;;4.00;1.55;;;;;;;;;;5100875;27;20506;-72
2022/04/17 14:54:16;;;;;;;6.05;1.92;;;;;;;;;;5101843;27;20038;-72